Alpine, Colorado
Current Conditions -  °F | °C
As of 1:30 PM on Tuesday 21 Oct 2014 (Local Time) from KRCV Reporting Station
Overcast Overcast  
Wind Chill: 56°   Ceiling: 9000
Heat Index: 56°   Visibility: 10mi
Dew Point: 37°   Wind: 3mph
Humidity: 49%   Direction: 140°SE
Pressure: 30.19"   Gusts: NA
Location:  37.6617°N, 106.617°W
Report Text: KRCV 211930Z AUTO 14003KT 10SM OVC090 13/03 A3019 RMK AO2 T01310026
Loading
Personal Weather Stations






























Interactive Weather Map
Tropical Storm Tracking
New forecast layout! Learn more

10-Day Weather Forecast

Advertisements
Track Severe Weather on mobile